EG-0005 weather

Cairo
Cairo Governorate, Egypt

Public forecast

Using degrees Celsius for public forecast. Weather courtesy of forecast.io.

METAR (pilot weather report)

Report is more than 6 hours old.

Closest report is São Tomé International Airport, 403.6 nm (747.5 km) E. Retrieved 2019/05/20 02:00 UTC (6 hours ago):

FPST 200200Z 23004KT 9999 FEW023 BKN033 26/25 Q1011 NOSIG

TAF (pilot weather forecast)

Forecast is more than 12 hours old.

Closest forecast is São Tomé International Airport, 403.6 nm (747.5 km) E. Retrieved 2019/05/15 00:06 UTC (5 days ago):

TAF FPST 152200Z 1600/1706 20006KT 9999 FEW020 BKN040 BECMG 1602/1606 SCT060